createdAt,value
2023-02-11T00:01:33.553Z,5.43
2023-02-11T00:04:02.558Z,6.38
2023-02-11T00:06:31.311Z,6.22
2023-02-11T00:08:58.821Z,6.37
2023-02-11T00:11:28.202Z,6.82
2023-02-11T00:13:56.160Z,6.72
2023-02-11T00:16:23.858Z,6.00
2023-02-11T00:18:53.260Z,5.45
2023-02-11T00:21:23.574Z,6.32
2023-02-11T00:23:51.574Z,6.15
2023-02-11T00:26:21.233Z,6.20
2023-02-11T00:31:17.797Z,9.70
2023-02-11T00:33:46.095Z,6.53
2023-02-11T00:36:17.535Z,6.68
2023-02-11T00:38:48.790Z,6.22
2023-02-11T00:41:17.306Z,6.40
2023-02-11T00:43:46.085Z,5.50
2023-02-11T00:46:13.787Z,6.13
2023-02-11T00:48:41.845Z,5.97
2023-02-11T00:51:10.074Z,6.10
2023-02-11T00:53:39.633Z,7.35
2023-02-11T00:56:08.596Z,7.20
2023-02-11T00:58:36.607Z,7.13
2023-02-11T01:01:04.767Z,7.00
2023-02-11T01:03:33.138Z,6.10
2023-02-11T01:06:01.104Z,6.38
2023-02-11T01:08:28.825Z,6.57
2023-02-11T01:11:00.236Z,6.65
2023-02-11T01:13:29.519Z,6.07
2023-02-11T01:15:57.323Z,6.28
2023-02-11T01:18:25.434Z,6.75
2023-02-11T01:20:54.491Z,7.65
2023-02-11T01:23:24.156Z,6.85
2023-02-11T01:25:52.413Z,6.90
2023-02-11T01:28:24.047Z,6.60
2023-02-11T01:30:53.489Z,7.00
2023-02-11T01:33:22.162Z,6.25
2023-02-11T01:35:50.353Z,6.05
2023-02-11T01:38:20.720Z,5.78
2023-02-11T01:40:50.068Z,5.85
2023-02-11T01:43:17.981Z,6.85
2023-02-11T01:46:01.788Z,6.38
2023-02-11T01:48:32.937Z,6.20
2023-02-11T01:51:07.187Z,7.03
2023-02-11T01:53:38.385Z,7.20
2023-02-11T01:56:07.638Z,7.63
2023-02-11T01:58:38.945Z,7.40
2023-02-11T02:01:11.259Z,5.70
2023-02-11T02:03:42.322Z,7.20
2023-02-11T02:06:16.482Z,6.88
2023-02-11T02:08:51.279Z,7.32
2023-02-11T02:11:19.158Z,6.85
2023-02-11T02:13:47.378Z,7.38
2023-02-11T02:16:18.706Z,6.85
2023-02-11T02:18:54.564Z,6.43
2023-02-11T02:21:58.354Z,7.35
2023-02-11T02:24:47.459Z,7.30
2023-02-11T02:27:32.529Z,6.30
2023-02-11T02:30:21.370Z,6.82
2023-02-11T02:33:22.509Z,6.40
2023-02-11T02:36:01.113Z,5.80
2023-02-11T02:38:33.773Z,5.97
2023-02-11T02:41:07.785Z,6.00
2023-02-11T02:43:38.025Z,6.10
2023-02-11T02:46:17.440Z,6.65
2023-02-11T02:48:47.186Z,6.38
2023-02-11T02:54:04.635Z,6.47
2023-02-11T02:56:41.223Z,5.63
2023-02-11T02:59:41.046Z,6.50
2023-02-11T03:02:15.507Z,6.15
2023-02-11T03:04:52.471Z,6.72
2023-02-11T03:07:27.902Z,6.43
2023-02-11T03:09:59.648Z,6.30
2023-02-11T03:12:29.815Z,5.80
2023-02-11T03:14:59.655Z,6.30
2023-02-11T03:17:30.698Z,5.93
2023-02-11T03:20:01.824Z,6.35
2023-02-11T03:22:35.553Z,6.10
2023-02-11T03:25:03.628Z,5.22
2023-02-11T03:27:39.211Z,5.38
2023-02-11T03:30:13.614Z,5.90
2023-02-11T03:32:46.308Z,5.88
2023-02-11T03:35:20.236Z,5.88
2023-02-11T03:37:54.186Z,5.85
2023-02-11T03:40:25.905Z,5.90
2023-02-11T03:42:58.472Z,6.28
2023-02-11T03:45:27.850Z,6.35
2023-02-11T03:47:59.245Z,6.18
2023-02-11T03:50:32.495Z,6.53
2023-02-11T03:53:02.140Z,6.30
2023-02-11T03:57:57.979Z,6.05
2023-02-11T04:00:30.706Z,5.97
2023-02-11T04:02:58.340Z,5.95
2023-02-11T04:05:26.046Z,5.47
2023-02-11T04:07:55.051Z,7.45
2023-02-11T04:10:22.659Z,7.10
2023-02-11T04:12:50.577Z,5.45
2023-02-11T04:15:18.416Z,6.35
2023-02-11T04:17:46.060Z,6.68
2023-02-11T04:20:13.963Z,6.47
2023-02-11T04:22:41.615Z,6.13
2023-02-11T04:25:10.914Z,6.18
2023-02-11T04:27:38.575Z,6.13
2023-02-11T04:30:07.699Z,6.57
2023-02-11T04:32:35.396Z,6.75
2023-02-11T04:35:02.899Z,5.43
2023-02-11T04:37:30.496Z,6.85
2023-02-11T04:39:58.380Z,6.75
2023-02-11T04:42:27.738Z,5.80
2023-02-11T04:44:55.285Z,6.00
2023-02-11T04:47:23.048Z,5.93
2023-02-11T04:49:50.685Z,7.85
2023-02-11T04:52:18.416Z,6.97
2023-02-11T04:54:46.145Z,6.57
2023-02-11T04:57:13.803Z,7.30
2023-02-11T04:59:43.009Z,6.78
2023-02-11T05:02:10.589Z,7.47
2023-02-11T05:04:38.302Z,6.47
2023-02-11T05:07:05.890Z,6.60
2023-02-11T05:09:33.738Z,6.55
2023-02-11T05:12:01.265Z,5.95
2023-02-11T05:14:28.949Z,6.03
2023-02-11T05:16:58.248Z,7.20
2023-02-11T05:19:25.926Z,6.85
2023-02-11T05:22:02.596Z,6.50
2023-02-11T05:24:31.461Z,6.93
2023-02-11T05:26:59.895Z,6.72
2023-02-11T05:29:28.058Z,7.03
2023-02-11T05:31:58.684Z,7.07
2023-02-11T05:34:26.354Z,7.00
2023-02-11T05:36:54.683Z,5.57
2023-02-11T05:39:22.348Z,5.72
2023-02-11T05:41:50.291Z,6.60
2023-02-11T05:44:17.905Z,7.18
2023-02-11T05:46:45.479Z,7.68
2023-02-11T05:49:14.823Z,7.35
2023-02-11T05:51:42.493Z,6.45
2023-02-11T05:54:10.241Z,7.15
2023-02-11T05:56:37.918Z,6.97
2023-02-11T05:59:05.615Z,6.63
2023-02-11T06:01:33.478Z,6.70
2023-02-11T06:04:01.260Z,6.50
2023-02-11T06:06:30.541Z,8.48
2023-02-11T06:08:58.223Z,6.68
2023-02-11T06:11:25.769Z,6.68
2023-02-11T06:13:53.480Z,6.00
2023-02-11T06:16:21.245Z,7.10
2023-02-11T06:18:48.797Z,6.30
2023-02-11T06:21:16.526Z,5.72
2023-02-11T06:23:46.039Z,5.95
2023-02-11T06:26:18.896Z,6.10
2023-02-11T06:28:47.857Z,6.70
2023-02-11T06:31:16.132Z,6.47
2023-02-11T06:33:45.056Z,6.15
2023-02-11T06:36:15.372Z,6.55
2023-02-11T06:38:43.280Z,6.97
2023-02-11T06:41:13.527Z,6.45
2023-02-11T06:43:41.704Z,6.88
2023-02-11T06:46:10.644Z,7.40
2023-02-11T06:48:38.711Z,7.68
2023-02-11T06:51:08.193Z,6.55
2023-02-11T06:53:38.487Z,6.53
2023-02-11T06:56:09.752Z,6.15
2023-02-11T06:58:39.900Z,7.22
2023-02-11T07:03:38.367Z,8.43
2023-02-11T07:06:07.803Z,7.70
2023-02-11T07:08:36.703Z,7.88
2023-02-11T07:11:10.725Z,7.72
2023-02-11T07:13:39.988Z,7.20
2023-02-11T07:16:08.992Z,7.43
2023-02-11T07:18:37.440Z,7.80
2023-02-11T07:21:06.544Z,6.22
2023-02-11T07:23:34.580Z,7.55
2023-02-11T07:26:03.916Z,6.57
2023-02-11T07:28:32.285Z,6.68
2023-02-11T07:31:07.133Z,6.70
2023-02-11T07:33:36.445Z,7.43
2023-02-11T07:36:06.478Z,6.82
2023-02-11T07:38:36.081Z,7.07
2023-02-11T07:41:05.048Z,7.00
2023-02-11T07:43:33.494Z,6.55
2023-02-11T07:46:04.890Z,6.57
2023-02-11T07:48:34.015Z,6.45
2023-02-11T07:51:10.089Z,6.88
2023-02-11T07:53:38.085Z,8.52
2023-02-11T07:56:07.181Z,6.90
2023-02-11T07:58:35.183Z,6.78
2023-02-11T08:01:06.027Z,7.35
2023-02-11T08:03:34.149Z,7.70
2023-02-11T08:06:04.606Z,7.90
2023-02-11T08:08:32.399Z,6.90
2023-02-11T08:11:05.586Z,7.20
2023-02-11T08:13:33.370Z,7.22
2023-02-11T08:16:00.934Z,7.80
2023-02-11T08:18:30.386Z,6.40
2023-02-11T08:21:03.786Z,6.70
2023-02-11T08:23:31.556Z,6.97
2023-02-11T08:26:02.149Z,8.52
2023-02-11T08:28:29.751Z,7.35
2023-02-11T08:30:57.439Z,7.47
2023-02-11T08:33:25.034Z,6.72
2023-02-11T08:35:54.122Z,5.82
2023-02-11T08:38:21.826Z,6.90
2023-02-11T08:40:49.664Z,5.68
2023-02-11T08:43:17.431Z,7.07
2023-02-11T08:45:46.080Z,7.53
2023-02-11T08:48:14.233Z,6.70
2023-02-11T08:50:42.118Z,6.82
2023-02-11T08:53:11.363Z,6.40
2023-02-11T08:55:38.957Z,6.18
2023-02-11T08:58:06.546Z,7.22
2023-02-11T09:00:34.644Z,6.00
2023-02-11T09:03:02.362Z,6.30
2023-02-11T09:05:30.030Z,6.47
2023-02-11T09:07:57.602Z,5.55
2023-02-11T09:10:26.706Z,6.18
2023-02-11T09:12:55.478Z,6.15
2023-02-11T09:15:23.045Z,6.55
2023-02-11T09:17:51.171Z,5.95
2023-02-11T09:20:20.161Z,5.88
2023-02-11T09:22:48.779Z,6.50
2023-02-11T09:25:17.061Z,7.20
2023-02-11T09:27:46.236Z,6.93
2023-02-11T09:30:14.395Z,6.55
2023-02-11T09:32:42.495Z,5.65
2023-02-11T09:35:10.093Z,5.75
2023-02-11T09:37:37.751Z,8.07
2023-02-11T09:40:07.311Z,5.55
2023-02-11T09:42:50.580Z,5.45
2023-02-11T09:45:21.206Z,6.15
2023-02-11T09:47:54.311Z,5.70
2023-02-11T09:50:28.180Z,6.07
2023-02-11T09:53:00.513Z,6.38
2023-02-11T09:55:31.184Z,5.93
2023-02-11T09:58:04.323Z,6.45
2023-02-11T10:00:40.449Z,6.60
2023-02-11T10:03:43.502Z,6.30
2023-02-11T10:06:33.216Z,6.70
2023-02-11T10:11:45.560Z,7.05
2023-02-11T10:14:30.601Z,5.90
2023-02-11T10:17:07.693Z,6.85
2023-02-11T10:19:51.014Z,6.47
2023-02-11T10:22:23.404Z,6.75
2023-02-11T10:24:55.339Z,7.22
2023-02-11T10:27:28.897Z,6.53
2023-02-11T10:30:03.197Z,7.55
2023-02-11T10:32:39.602Z,6.72
2023-02-11T10:35:15.330Z,7.03
2023-02-11T10:37:44.611Z,7.07
2023-02-11T10:40:15.528Z,7.88
2023-02-11T10:42:47.663Z,8.05
2023-02-11T10:45:32.925Z,7.65
2023-02-11T10:48:01.510Z,7.45
2023-02-11T10:50:31.838Z,7.50
2023-02-11T10:53:16.691Z,8.13
2023-02-11T10:55:51.768Z,8.85
2023-02-11T10:58:26.048Z,9.93
2023-02-11T11:00:57.186Z,7.53
2023-02-11T11:03:27.380Z,7.85
2023-02-11T11:05:58.695Z,9.40
2023-02-11T11:08:41.344Z,9.02
2023-02-11T11:11:11.358Z,7.57
2023-02-11T11:13:41.866Z,7.63
2023-02-11T11:16:24.091Z,8.18
2023-02-11T11:18:53.597Z,8.38
2023-02-11T11:21:24.484Z,7.85
2023-02-11T11:23:55.979Z,7.78
2023-02-11T11:26:26.016Z,7.20
2023-02-11T11:28:58.794Z,9.32
2023-02-11T11:31:31.854Z,8.52
2023-02-11T11:34:01.161Z,8.43
2023-02-11T11:36:35.740Z,7.82
2023-02-11T11:39:16.925Z,7.50
2023-02-11T11:41:51.920Z,8.15
2023-02-11T11:44:25.933Z,7.32
2023-02-11T11:47:25.592Z,7.88
2023-02-11T11:52:44.110Z,8.38
2023-02-11T11:55:19.724Z,8.20
2023-02-11T11:57:49.070Z,7.22
2023-02-11T12:00:19.393Z,7.07
2023-02-11T12:03:17.584Z,7.07
2023-02-11T12:05:54.553Z,6.85
2023-02-11T12:08:31.134Z,8.00
2023-02-11T12:11:12.653Z,8.75
2023-02-11T12:14:01.620Z,8.40
2023-02-11T12:16:40.420Z,7.10
2023-02-11T12:19:38.950Z,11.52
2023-02-11T12:22:12.165Z,10.00
2023-02-11T12:24:56.604Z,9.82
2023-02-11T12:27:39.645Z,8.20
2023-02-11T12:30:23.017Z,8.30
2023-02-11T12:32:57.294Z,8.10
2023-02-11T12:35:40.378Z,6.75
2023-02-11T12:38:42.502Z,8.52
2023-02-11T12:41:33.176Z,7.13
2023-02-11T12:44:01.151Z,9.45
2023-02-11T12:46:37.767Z,6.97
2023-02-11T12:49:32.261Z,7.60
2023-02-11T12:52:16.641Z,6.53
2023-02-11T12:54:52.039Z,7.72
2023-02-11T12:57:23.430Z,7.05
2023-02-11T12:59:58.677Z,7.10
2023-02-11T13:02:34.427Z,6.78
2023-02-11T13:05:06.146Z,7.35
2023-02-11T13:07:39.995Z,6.88
2023-02-11T13:10:23.381Z,7.22
2023-02-11T13:12:53.544Z,7.97
2023-02-11T13:15:21.197Z,7.25
2023-02-11T13:17:59.306Z,7.15
2023-02-11T13:20:36.284Z,7.75
2023-02-11T13:23:14.017Z,7.60
2023-02-11T13:25:49.658Z,7.68
2023-02-11T13:28:40.417Z,8.60
2023-02-11T13:31:09.692Z,8.15
2023-02-11T13:33:38.024Z,8.07
2023-02-11T13:36:24.911Z,7.13
2023-02-11T13:39:03.792Z,7.28
2023-02-11T13:41:35.329Z,8.50
2023-02-11T13:44:14.981Z,7.22
2023-02-11T13:49:29.968Z,8.02
2023-02-11T13:51:59.087Z,7.78
2023-02-11T13:57:30.094Z,7.45
2023-02-11T13:59:59.785Z,7.88
2023-02-11T14:05:13.276Z,8.15
2023-02-11T14:08:20.680Z,7.45
2023-02-11T14:10:54.873Z,7.10
2023-02-11T14:13:26.907Z,7.07
2023-02-11T14:16:09.295Z,8.18
2023-02-11T14:18:38.489Z,7.68
2023-02-11T14:21:12.480Z,9.05
2023-02-11T14:23:40.574Z,8.10
2023-02-11T14:26:35.113Z,7.78
2023-02-11T14:29:13.409Z,8.07
2023-02-11T14:31:45.726Z,7.97
2023-02-11T14:34:41.217Z,7.60
2023-02-11T14:37:19.110Z,6.45
2023-02-11T14:40:08.365Z,8.10
2023-02-11T14:42:38.591Z,7.68
2023-02-11T14:45:10.903Z,7.63
2023-02-11T14:47:43.395Z,6.80
2023-02-11T14:50:19.777Z,7.35
2023-02-11T14:52:49.081Z,6.88
2023-02-11T14:55:27.315Z,7.20
2023-02-11T14:58:08.487Z,7.38
2023-02-11T15:00:36.229Z,7.38
2023-02-11T15:03:04.296Z,7.22
2023-02-11T15:05:31.831Z,7.85
2023-02-11T15:08:02.412Z,7.53
2023-02-11T15:10:33.481Z,6.95
2023-02-11T15:13:02.380Z,8.85
2023-02-11T15:15:32.664Z,6.53
2023-02-11T15:18:03.708Z,6.35
2023-02-11T15:20:33.749Z,6.65
2023-02-11T15:23:03.765Z,6.97
2023-02-11T15:25:34.040Z,7.13
2023-02-11T15:28:01.833Z,6.68
2023-02-11T15:30:33.745Z,6.03
2023-02-11T15:33:02.770Z,6.22
2023-02-11T15:35:32.813Z,6.35
2023-02-11T15:38:01.356Z,6.68
2023-02-11T15:40:31.701Z,6.18
2023-02-11T15:43:01.541Z,6.30
2023-02-11T15:45:33.657Z,6.32
2023-02-11T15:48:08.312Z,6.90
2023-02-11T15:50:38.307Z,6.20
2023-02-11T15:55:42.421Z,6.47
2023-02-11T15:58:11.593Z,6.55
2023-02-11T16:00:48.003Z,6.05
2023-02-11T16:03:21.397Z,6.70
2023-02-11T16:05:49.542Z,6.10
2023-02-11T16:08:25.662Z,5.97
2023-02-11T16:10:59.434Z,6.28
2023-02-11T16:13:28.503Z,6.38
2023-02-11T16:16:00.350Z,6.57
2023-02-11T16:18:38.265Z,6.65
2023-02-11T16:21:12.542Z,7.20
2023-02-11T16:23:41.620Z,6.10
2023-02-11T16:26:21.271Z,6.75
2023-02-11T16:28:49.375Z,5.72
2023-02-11T16:31:19.093Z,6.50
2023-02-11T16:33:46.755Z,5.80
2023-02-11T16:36:16.574Z,5.57
2023-02-11T16:41:11.821Z,7.43
2023-02-11T16:43:40.650Z,6.07
2023-02-11T16:46:08.224Z,6.63
2023-02-11T16:48:38.414Z,6.47
2023-02-11T16:51:06.519Z,5.38
2023-02-11T16:53:34.190Z,5.72
2023-02-11T16:56:01.896Z,5.72
2023-02-11T16:58:29.605Z,5.60
2023-02-11T17:00:57.678Z,6.20
2023-02-11T17:03:29.861Z,5.43
2023-02-11T17:06:00.003Z,5.97
2023-02-11T17:08:28.111Z,5.20
2023-02-11T17:10:56.600Z,6.07
2023-02-11T17:13:25.158Z,5.70
2023-02-11T17:15:53.139Z,5.50
2023-02-11T17:18:21.042Z,5.97
2023-02-11T17:20:48.830Z,5.95
2023-02-11T17:23:18.755Z,5.47
2023-02-11T17:25:46.678Z,4.90
2023-02-11T17:28:14.203Z,5.95
2023-02-11T17:30:42.571Z,6.47
2023-02-11T17:33:10.942Z,5.93
2023-02-11T17:35:40.611Z,6.05
2023-02-11T17:38:08.092Z,5.80
2023-02-11T17:40:37.161Z,5.78
2023-02-11T17:43:05.242Z,5.38
2023-02-11T17:45:33.078Z,5.43
2023-02-11T17:48:00.714Z,5.50
2023-02-11T17:50:29.595Z,5.38
2023-02-11T17:52:57.869Z,5.72
2023-02-11T17:55:25.454Z,5.93
2023-02-11T17:57:54.698Z,6.38
2023-02-11T18:00:22.925Z,6.50
2023-02-11T18:02:50.563Z,5.22
2023-02-11T18:05:18.401Z,5.00
2023-02-11T18:07:46.185Z,6.05
2023-02-11T18:10:13.797Z,6.32
2023-02-11T18:12:41.373Z,5.65
2023-02-11T18:15:12.282Z,6.38
2023-02-11T18:17:39.901Z,5.32
2023-02-11T18:20:09.218Z,5.25
2023-02-11T18:22:36.928Z,5.13
2023-02-11T18:25:05.271Z,6.70
2023-02-11T18:27:33.437Z,6.18
2023-02-11T18:30:01.177Z,5.40
2023-02-11T18:32:30.626Z,6.07
2023-02-11T18:34:58.494Z,5.80
2023-02-11T18:37:26.151Z,5.47
2023-02-11T18:39:54.297Z,6.78
2023-02-11T18:42:21.918Z,5.28
2023-02-11T18:44:50.855Z,5.82
2023-02-11T18:47:18.374Z,6.38
2023-02-11T18:49:47.466Z,5.82
2023-02-11T18:52:15.106Z,5.88
2023-02-11T18:54:42.853Z,5.63
2023-02-11T18:57:10.415Z,5.88
2023-02-11T18:59:37.922Z,5.80
2023-02-11T19:02:05.753Z,5.65
2023-02-11T19:07:05.328Z,6.47
2023-02-11T19:09:32.973Z,6.57
2023-02-11T19:12:00.879Z,6.13
2023-02-11T19:14:29.769Z,5.78
2023-02-11T19:16:58.797Z,6.70
2023-02-11T19:19:28.631Z,6.78
2023-02-11T19:21:57.456Z,5.70
2023-02-11T19:24:27.728Z,6.85
2023-02-11T19:26:58.286Z,8.55
2023-02-11T19:29:26.804Z,6.90
2023-02-11T19:31:55.082Z,6.18
2023-02-11T19:34:22.773Z,6.95
2023-02-11T19:36:50.953Z,6.03
2023-02-11T19:39:18.727Z,6.60
2023-02-11T19:41:47.710Z,6.15
2023-02-11T19:44:15.345Z,6.50
2023-02-11T19:46:43.137Z,7.72
2023-02-11T19:49:14.554Z,6.55
2023-02-11T19:51:42.222Z,6.40
2023-02-11T19:54:09.986Z,6.30
2023-02-11T19:56:37.611Z,6.90
2023-02-11T19:59:06.992Z,5.68
2023-02-11T20:01:34.820Z,6.10
2023-02-11T20:04:02.635Z,5.75
2023-02-11T20:06:31.982Z,6.10
2023-02-11T20:09:01.595Z,6.03
2023-02-11T20:11:30.356Z,6.45
2023-02-11T20:13:59.190Z,5.75
2023-02-11T20:16:46.149Z,5.65
2023-02-11T20:19:15.961Z,5.57
2023-02-11T20:21:46.600Z,5.50
2023-02-11T20:24:14.860Z,5.70
2023-02-11T20:26:42.455Z,6.13
2023-02-11T20:29:10.455Z,6.07
2023-02-11T20:31:39.631Z,5.65
2023-02-11T20:34:07.278Z,5.68
2023-02-11T20:36:35.779Z,6.05
2023-02-11T20:39:05.211Z,5.38
2023-02-11T20:41:35.130Z,6.22
2023-02-11T20:44:05.659Z,6.03
2023-02-11T20:46:34.625Z,6.60
2023-02-11T20:49:03.743Z,6.57
2023-02-11T20:51:33.396Z,6.35
2023-02-11T20:54:01.681Z,5.90
2023-02-11T20:56:31.947Z,6.43
2023-02-11T20:59:00.855Z,6.07
2023-02-11T21:01:31.420Z,6.53
2023-02-11T21:04:00.865Z,6.05
2023-02-11T21:06:33.760Z,6.53
2023-02-11T21:09:01.631Z,6.82
2023-02-11T21:11:29.357Z,6.03
2023-02-11T21:13:57.138Z,6.00
2023-02-11T21:16:25.014Z,6.53
2023-02-11T21:18:52.534Z,5.97
2023-02-11T21:21:20.381Z,6.60
2023-02-11T21:23:49.492Z,6.38
2023-02-11T21:26:17.729Z,6.75
2023-02-11T21:28:45.402Z,7.18
2023-02-11T21:31:19.093Z,6.45
2023-02-11T21:33:47.596Z,6.15
2023-02-11T21:36:15.237Z,7.05
2023-02-11T21:38:42.845Z,6.75
2023-02-11T21:41:12.200Z,6.63
2023-02-11T21:43:40.047Z,6.93
2023-02-11T21:46:10.285Z,6.90
2023-02-11T21:48:38.249Z,6.93
2023-02-11T21:51:07.851Z,6.35
2023-02-11T21:53:35.612Z,6.13
2023-02-11T21:56:05.302Z,6.28
2023-02-11T22:01:01.851Z,6.18
2023-02-11T22:03:29.438Z,6.55
2023-02-11T22:05:57.565Z,6.25
2023-02-11T22:08:25.289Z,5.95
2023-02-11T22:10:52.853Z,5.90
2023-02-11T22:13:20.531Z,5.68
2023-02-11T22:15:59.705Z,5.30
2023-02-11T22:18:27.644Z,5.78
2023-02-11T22:21:00.322Z,5.95
2023-02-11T22:23:28.266Z,5.65
2023-02-11T22:25:56.385Z,5.35
2023-02-11T22:28:25.560Z,5.82
2023-02-11T22:30:54.343Z,5.90
2023-02-11T22:33:23.701Z,5.93
2023-02-11T22:35:58.528Z,5.97
2023-02-11T22:38:26.125Z,5.72
2023-02-11T22:40:53.731Z,5.55
2023-02-11T22:43:22.258Z,5.88
2023-02-11T22:45:49.988Z,5.88
2023-02-11T22:48:18.214Z,5.53
2023-02-11T22:50:47.186Z,6.28
2023-02-11T22:53:14.697Z,6.13
2023-02-11T22:55:42.273Z,5.88
2023-02-11T22:58:09.773Z,5.88
2023-02-11T23:00:39.904Z,5.63
2023-02-11T23:03:09.097Z,5.40
2023-02-11T23:05:40.543Z,5.88
2023-02-11T23:08:11.892Z,5.60
2023-02-11T23:10:39.890Z,5.50
2023-02-11T23:13:08.416Z,5.50
2023-02-11T23:15:39.546Z,5.32
2023-02-11T23:18:07.549Z,5.25
2023-02-11T23:20:35.604Z,5.78
2023-02-11T23:23:04.094Z,5.72
2023-02-11T23:25:33.987Z,5.63
2023-02-11T23:28:01.944Z,5.18
2023-02-11T23:30:29.627Z,5.72
2023-02-11T23:32:57.291Z,5.30
2023-02-11T23:35:25.008Z,6.68
2023-02-11T23:37:53.378Z,5.47
2023-02-11T23:40:21.825Z,5.20
2023-02-11T23:42:50.919Z,5.28
2023-02-11T23:45:19.128Z,5.15
2023-02-11T23:47:46.832Z,5.55
2023-02-11T23:50:14.430Z,5.45
2023-02-11T23:52:42.140Z,5.10
2023-02-11T23:55:10.342Z,5.50
2023-02-11T23:57:37.885Z,5.75
